This is the latest recevied weather packets stored in our database for station/object K5SVV. If no packets are shown the sender has not sent any weather packets the latest 10 day(s).
| Time | Temp. | Humidity | Pressure | Rain* | Wind** | Luminosity | Snow |
|---|---|---|---|---|---|---|---|
| 1777922180 | 25.56° C | 65% | 1009.6 hPa | 0 mm | - | 670 W/m² | - |
| 1777921876 | 25.56° C | 65% | 1009.9 hPa | 0 mm | - | 730 W/m² | - |
| 1777921572 | 25.56° C | 66% | 1010.5 hPa | 0 mm | - | 813 W/m² | - |
| 1777921269 | 25° C | 66% | 1010.2 hPa | 0 mm | - | 752 W/m² | - |
| 1777920965 | 25° C | 66% | 1010.3 hPa | 0 mm | - | 783 W/m² | - |
| 1777920662 | 25° C | 66% | 1010.3 hPa | 0 mm | - | 764 W/m² | - |
| 1777920357 | 25° C | 67% | 1010.3 hPa | 0 mm | - | 760 W/m² | - |
| 1777920053 | 25° C | 66% | 1010.4 hPa | 0 mm | - | 784 W/m² | - |
| 1777919750 | 25° C | 65% | 1010.6 hPa | 0 mm | - | 760 W/m² | - |
| 1777919448 | 24.44° C | 66% | 1010.6 hPa | 0 mm | - | 783 W/m² | - |
| 1777919145 | 24.44° C | 65% | 1010.8 hPa | 0 mm | - | 752 W/m² | - |
| 1777918842 | 25° C | 65% | 1010.5 hPa | 0 mm | - | 760 W/m² | - |
| 1777918539 | 25° C | 65% | 1010.8 hPa | 0 mm | - | 806 W/m² | - |
| 1777918237 | 24.44° C | 68% | 1010.7 hPa | 0 mm | - | 714 W/m² | - |
| 1777917936 | 24.44° C | 65% | 1010.8 hPa | 0 mm | - | 812 W/m² | - |
| 1777917634 | 24.44° C | 66% | 1010.9 hPa | 0 mm | - | 774 W/m² | - |
| 1777917331 | 24.44° C | 65% | 1011 hPa | 0 mm | - | 800 W/m² | - |
| 1777917028 | 24.44° C | 67% | 1011 hPa | 0 mm | - | 785 W/m² | - |
| 1777916726 | 23.89° C | 67% | 1011 hPa | 0 mm | - | 766 W/m² | - |
| 1777916423 | 23.89° C | 67% | 1011.1 hPa | 0 mm | - | 744 W/m² | - |
| 1777916119 | 23.89° C | 66% | 1011.2 hPa | 0 mm | - | 757 W/m² | - |
| 1777915817 | 23.89° C | 66% | 1011 hPa | 0 mm | - | 773 W/m² | - |
| 1777915513 | 23.89° C | 68% | 1011.3 hPa | 0 mm | - | 780 W/m² | - |
| 1777915209 | 23.89° C | 66% | 1011.4 hPa | 0 mm | - | 800 W/m² | - |
| 1777914907 | 23.33° C | 66% | 1011.5 hPa | 0 mm | - | 785 W/m² | - |
* Rain latest hour (hover to see other rain measurements)
** Current wind speed in m/s (hover to see current wind gust speed)